Time;durP1;ratioP1;P1;durP2;ratioP2;P2;SDS_P1;SDS_P2;PMS_P1;PMS_P2;Temp;Humidity;BMP_temperature;BMP_pressure;BME280_temperature;BME280_humidity;BME280_pressure;Samples;Min_cycle;Max_cycle;Signal;HPM_P1;HPM_P2
2023/11/05 00:01:33;;;;;;;1.2;1.1;;;;;;;7.86;93.52148;910.4398;;;;
2023/11/05 00:04:09;;;;;;;1;0.9;;;;;;;7.89;92.49512;910.6822;;;;
2023/11/05 00:06:34;;;;;;;1;0.8;;;;;;;7.84;93.28906;910.6638;;;;
2023/11/05 00:09:10;;;;;;;0.9;0.6;;;;;;;7.8;93.88281;910.503;;;;
2023/11/05 00:11:48;;;;;;;0.7;0.5;;;;;;;7.77;93.18457;910.5725;;;;
2023/11/05 00:14:17;;;;;;;1.2;0.6;;;;;;;7.82;89.60938;910.517;;;;
2023/11/05 00:16:42;;;;;;;0.6;0.6;;;;;;;7.56;90.24609;910.3511;;;;
2023/11/05 00:19:28;;;;;;;0.7;0.5;;;;;;;7.58;91.11328;910.2745;;;;
2023/11/05 00:21:55;;;;;;;0.7;0.7;;;;;;;7.54;93.33984;910.2106;;;;
2023/11/05 00:24:20;;;;;;;1;0.9;;;;;;;7.59;93.74609;910.3914;;;;
2023/11/05 00:26:49;;;;;;;0.4;0.4;;;;;;;7.39;93.95215;910.2837;;;;
2023/11/05 00:29:15;;;;;;;0.9;0.6;;;;;;;7.46;94.31738;910.2173;;;;
2023/11/05 00:31:45;;;;;;;1.7;0.7;;;;;;;7.59;94.6748;909.9703;;;;
2023/11/05 00:34:13;;;;;;;1;0.6;;;;;;;7.49;94.88086;909.8857;;;;
2023/11/05 00:36:40;;;;;;;0.8;0.8;;;;;;;7.65;94.74512;909.7814;;;;
2023/11/05 00:39:05;;;;;;;1.4;0.9;;;;;;;7.68;94.96875;909.7457;;;;
2023/11/05 00:41:33;;;;;;;0.6;0.6;;;;;;;7.71;94.70215;909.6516;;;;
2023/11/05 00:43:57;;;;;;;0.9;0.8;;;;;;;7.61;93.53516;909.5644;;;;
2023/11/05 00:46:23;;;;;;;0.8;0.8;;;;;;;7.21;95.28418;909.4626;;;;
2023/11/05 00:48:48;;;;;;;1.2;1;;;;;;;7.31;96.22363;909.4396;;;;
2023/11/05 00:51:15;;;;;;;0.8;0.8;;;;;;;7.23;97.05566;909.4613;;;;
2023/11/05 00:53:41;;;;;;;1.3;0.8;;;;;;;7.24;97.5332;909.4406;;;;
2023/11/05 00:56:07;;;;;;;0.7;0.7;;;;;;;7.25;97.85254;909.4325;;;;
2023/11/05 00:58:32;;;;;;;1.8;0.9;;;;;;;7.11;98.30859;909.5828;;;;
2023/11/05 01:01:00;;;;;;;1.9;1.1;;;;;;;7.22;98.59473;909.6445;;;;
2023/11/05 01:03:25;;;;;;;1.1;0.8;;;;;;;7.28;99.08301;909.7341;;;;
2023/11/05 01:05:50;;;;;;;0.6;0.5;;;;;;;7.31;97.7334;909.7355;;;;
2023/11/05 01:08:21;;;;;;;0.8;0.7;;;;;;;7.31;97.37988;909.7522;;;;
2023/11/05 01:10:51;;;;;;;0.6;0.6;;;;;;;7.15;96.26855;909.9171;;;;
2023/11/05 01:13:16;;;;;;;0.7;0.7;;;;;;;6.99;96.93457;909.9451;;;;
2023/11/05 01:15:43;;;;;;;0.6;0.5;;;;;;;7.03;97.72363;909.9074;;;;
2023/11/05 01:18:08;;;;;;;0.6;0.6;;;;;;;7.18;97.37402;909.8491;;;;
2023/11/05 01:20:36;;;;;;;0.4;0.4;;;;;;;7.11;96.37402;909.9703;;;;
2023/11/05 01:23:01;;;;;;;0.5;0.5;;;;;;;7.15;95.72266;909.9765;;;;
2023/11/05 01:25:28;;;;;;;0.6;0.5;;;;;;;7.13;95.56055;909.8338;;;;
2023/11/05 01:27:53;;;;;;;0.6;0.5;;;;;;;7.14;95.56445;909.5622;;;;
2023/11/05 01:30:21;;;;;;;5;3.1;;;;;;;7.2;93.15039;909.4785;;;;
2023/11/05 01:32:47;;;;;;;1;0.7;;;;;;;7.25;94.11523;909.4125;;;;
2023/11/05 01:35:17;;;;;;;0.6;0.5;;;;;;;7.49;93.29395;909.4487;;;;
2023/11/05 01:37:47;;;;;;;0.4;0.4;;;;;;;7.41;93.29883;909.4476;;;;
2023/11/05 01:40:13;;;;;;;0.4;0.4;;;;;;;7.44;93.37305;909.1755;;;;
2023/11/05 01:42:42;;;;;;;0.3;0.3;;;;;;;7.51;93.00293;908.8806;;;;
2023/11/05 01:45:06;;;;;;;0.2;0.2;;;;;;;7.37;94.79688;908.8557;;;;
2023/11/05 01:47:34;;;;;;;1.3;1.3;;;;;;;7.17;96.30664;908.8147;;;;
2023/11/05 01:50:02;;;;;;;0.5;0.5;;;;;;;7.11;94.64063;908.5051;;;;
2023/11/05 01:52:27;;;;;;;0.3;0.3;;;;;;;7.31;93.12988;908.4473;;;;
2023/11/05 01:54:55;;;;;;;6.3;5.9;;;;;;;7.42;93.66602;908.5577;;;;
2023/11/05 01:57:20;;;;;;;4.1;3.9;;;;;;;7.35;94.81543;908.4896;;;;
2023/11/05 01:59:45;;;;;;;0.4;0.4;;;;;;;7.36;94.00098;908.0898;;;;
2023/11/05 02:02:11;;;;;;;0.6;0.3;;;;;;;7.44;91.96875;907.9778;;;;
2023/11/05 02:04:39;;;;;;;0.5;0.5;;;;;;;7.33;94.47168;908.0787;;;;
2023/11/05 02:07:04;;;;;;;0.4;0.4;;;;;;;7.3;94.64648;908.1018;;;;
2023/11/05 02:09:33;;;;;;;0.5;0.4;;;;;;;7.09;95.32422;908.0225;;;;
2023/11/05 02:11:58;;;;;;;0.3;0.3;;;;;;;7;95.0791;908.0173;;;;
2023/11/05 02:14:26;;;;;;;0.3;0.3;;;;;;;7.11;95.26367;907.9988;;;;
2023/11/05 02:16:51;;;;;;;1;0.4;;;;;;;7.21;94.35449;907.9039;;;;
2023/11/05 02:19:16;;;;;;;0.9;0.5;;;;;;;7.33;93.66699;907.7701;;;;
2023/11/05 02:21:43;;;;;;;0.6;0.4;;;;;;;7.36;92.96094;907.7795;;;;
2023/11/05 02:24:08;;;;;;;0.4;0.4;;;;;;;7.29;93.87402;907.7144;;;;
2023/11/05 02:26:35;;;;;;;0.4;0.4;;;;;;;7.62;93.1084;907.634;;;;
2023/11/05 02:29:00;;;;;;;0.5;0.3;;;;;;;7.42;93.09863;907.6317;;;;
2023/11/05 02:31:25;;;;;;;0.7;0.5;;;;;;;7.39;93.36523;907.637;;;;
2023/11/05 02:33:51;;;;;;;0.3;0.3;;;;;;;7.38;93.98438;907.6666;;;;
2023/11/05 02:36:16;;;;;;;0.8;0.4;;;;;;;7.5;93.02344;907.6839;;;;
2023/11/05 02:38:45;;;;;;;0.5;0.3;;;;;;;7.32;92.72559;907.601;;;;
2023/11/05 02:41:13;;;;;;;0.3;0.3;;;;;;;7.42;92.12207;907.616;;;;
2023/11/05 02:43:38;;;;;;;0.4;0.4;;;;;;;7.59;91.07031;907.603;;;;
2023/11/05 02:46:06;;;;;;;1.6;0.9;;;;;;;7.55;91.1875;907.5906;;;;
2023/11/05 02:48:32;;;;;;;1.3;1;;;;;;;7.43;91.93164;907.5293;;;;
2023/11/05 02:50:59;;;;;;;1.7;1;;;;;;;7.45;91.77832;907.4608;;;;
2023/11/05 02:53:24;;;;;;;1.4;1.1;;;;;;;7.31;92.46191;907.367;;;;
2023/11/05 02:55:52;;;;;;;1.8;1.3;;;;;;;7.27;92.92773;907.305;;;;
2023/11/05 02:58:17;;;;;;;1.6;1.1;;;;;;;7.22;93.17871;907.4402;;;;
2023/11/05 03:00:45;;;;;;;0.7;0.6;;;;;;;7.11;93.4834;907.4231;;;;
2023/11/05 03:03:19;;;;;;;0.5;0.4;;;;;;;7.08;92.94531;907.4738;;;;
2023/11/05 03:05:50;;;;;;;0.5;0.5;;;;;;;7.12;93.29297;907.433;;;;
2023/11/05 03:08:15;;;;;;;0.6;0.5;;;;;;;7.07;92.98633;907.4299;;;;
2023/11/05 03:10:43;;;;;;;0.3;0.3;;;;;;;7.04;92.68652;907.4471;;;;
2023/11/05 03:13:08;;;;;;;0.4;0.3;;;;;;;6.99;93.63867;907.4324;;;;
2023/11/05 03:15:35;;;;;;;0.2;0.2;;;;;;;6.86;94.04004;907.4194;;;;
2023/11/05 03:18:01;;;;;;;0.4;0.4;;;;;;;6.7;94.88867;907.3962;;;;
2023/11/05 03:20:26;;;;;;;0.4;0.4;;;;;;;6.42;96.43066;907.4619;;;;
2023/11/05 03:22:51;;;;;;;0.2;0.2;;;;;;;6.27;97.6416;907.4392;;;;
2023/11/05 03:25:16;;;;;;;0.3;0.3;;;;;;;6.6;96.41504;907.4391;;;;
2023/11/05 03:27:49;;;;;;;0.4;0.4;;;;;;;6.58;96.08203;907.3686;;;;
2023/11/05 03:30:18;;;;;;;0.3;0.3;;;;;;;6.59;96.25391;907.3541;;;;
2023/11/05 03:32:46;;;;;;;0.5;0.5;;;;;;;6.49;96.48047;907.2648;;;;
2023/11/05 03:35:11;;;;;;;0.5;0.5;;;;;;;6.67;95.25391;907.3181;;;;
2023/11/05 03:37:36;;;;;;;0.6;0.4;;;;;;;6.6;94.68555;907.337;;;;
2023/11/05 03:40:03;;;;;;;1.8;1;;;;;;;6.49;96.19824;907.3345;;;;
2023/11/05 03:42:28;;;;;;;1.7;1.6;;;;;;;6.47;96.42969;907.3547;;;;
2023/11/05 03:44:56;;;;;;;1.2;0.7;;;;;;;6.39;96.31152;907.3817;;;;
2023/11/05 03:47:21;;;;;;;5;4.7;;;;;;;6.32;97.13184;907.4617;;;;
2023/11/05 03:49:47;;;;;;;23.8;21.9;;;;;;;6.44;96.84375;907.3112;;;;
2023/11/05 03:52:12;;;;;;;7.6;6.9;;;;;;;6.44;96.53809;907.2313;;;;
2023/11/05 03:54:40;;;;;;;0.7;0.5;;;;;;;6.47;95.95605;907.2803;;;;
2023/11/05 03:57:05;;;;;;;0.9;0.4;;;;;;;6.46;96.10156;907.2452;;;;
2023/11/05 03:59:32;;;;;;;1.1;0.7;;;;;;;6.27;95.94629;907.3231;;;;
2023/11/05 04:02:31;;;;;;;0.8;0.8;;;;;;;6.03;97.55176;907.2553;;;;
2023/11/05 04:04:56;;;;;;;0.7;0.7;;;;;;;5.96;97.6377;907.218;;;;
2023/11/05 04:07:27;;;;;;;0.6;0.6;;;;;;;5.9;98.3252;907.2494;;;;
2023/11/05 04:09:56;;;;;;;0.8;0.7;;;;;;;5.74;99.39453;907.2194;;;;
2023/11/05 04:12:21;;;;;;;0.8;0.4;;;;;;;5.84;98.76465;907.1383;;;;
2023/11/05 04:14:47;;;;;;;0.9;0.5;;;;;;;5.96;98.01172;907.0472;;;;
2023/11/05 04:17:12;;;;;;;0.4;0.4;;;;;;;5.97;98.13672;906.9849;;;;
2023/11/05 04:19:42;;;;;;;0.8;0.7;;;;;;;5.91;97.90918;906.9814;;;;
2023/11/05 04:22:06;;;;;;;0.6;0.6;;;;;;;5.82;97.67383;907.0481;;;;
2023/11/05 04:24:32;;;;;;;2;0.9;;;;;;;5.63;98.67188;907.0426;;;;
2023/11/05 04:26:57;;;;;;;0.7;0.5;;;;;;;5.68;98.79297;907.0266;;;;
2023/11/05 04:29:24;;;;;;;0.9;0.5;;;;;;;5.7;98.58203;907.1035;;;;
2023/11/05 04:31:49;;;;;;;0.5;0.5;;;;;;;5.77;98.1582;906.962;;;;
2023/11/05 04:34:15;;;;;;;0.3;0.3;;;;;;;5.67;98.91504;907.1002;;;;
2023/11/05 04:36:41;;;;;;;0.6;0.5;;;;;;;5.75;98.0752;906.9539;;;;
2023/11/05 04:39:12;;;;;;;0.3;0.3;;;;;;;5.69;98.33203;906.9641;;;;
2023/11/05 04:41:36;;;;;;;0.3;0.3;;;;;;;5.69;97.50977;906.9086;;;;
2023/11/05 04:44:05;;;;;;;0.4;0.4;;;;;;;5.57;99.17383;906.9697;;;;
2023/11/05 04:46:30;;;;;;;0.4;0.4;;;;;;;5.71;98.30176;907.0298;;;;
2023/11/05 04:48:56;;;;;;;0.5;0.5;;;;;;;5.67;98.32813;906.966;;;;
2023/11/05 04:51:21;;;;;;;0.5;0.5;;;;;;;5.57;98.92578;907.0706;;;;
2023/11/05 04:53:50;;;;;;;0.5;0.5;;;;;;;5.55;99.09082;907.0198;;;;
2023/11/05 04:56:15;;;;;;;0.8;0.7;;;;;;;5.7;98.79883;906.9423;;;;
2023/11/05 04:58:40;;;;;;;0.6;0.6;;;;;;;5.81;97.49121;906.9125;;;;
2023/11/05 05:01:06;;;;;;;0.5;0.5;;;;;;;5.67;97.13086;906.8586;;;;
2023/11/05 05:03:31;;;;;;;0.5;0.5;;;;;;;5.59;98.20996;906.8287;;;;
2023/11/05 05:05:58;;;;;;;0.6;0.5;;;;;;;5.71;97.44434;906.85;;;;
2023/11/05 05:08:23;;;;;;;0.2;0.2;;;;;;;5.92;96.73633;906.7538;;;;
2023/11/05 05:10:51;;;;;;;0.2;0.2;;;;;;;6;96.03223;906.7525;;;;
2023/11/05 05:13:16;;;;;;;0.2;0.2;;;;;;;5.98;96.00293;906.8014;;;;
2023/11/05 05:15:45;;;;;;;0.3;0.3;;;;;;;5.93;96.06348;906.733;;;;
2023/11/05 05:18:12;;;;;;;0.7;0.6;;;;;;;5.62;96.94043;906.6989;;;;
2023/11/05 05:20:37;;;;;;;0.8;0.8;;;;;;;5.59;97.16016;906.6013;;;;
2023/11/05 05:23:08;;;;;;;0.6;0.6;;;;;;;5.6;96.80957;906.6272;;;;
2023/11/05 05:25:35;;;;;;;0.4;0.3;;;;;;;5.68;96.18652;906.5924;;;;
2023/11/05 05:28:01;;;;;;;0.2;0.2;;;;;;;6.03;94.72754;906.6211;;;;
2023/11/05 05:30:26;;;;;;;0.2;0.2;;;;;;;6.27;93.2666;906.7004;;;;
2023/11/05 05:32:53;;;;;;;0.9;0.6;;;;;;;6.09;94.09961;906.6511;;;;
2023/11/05 05:35:18;;;;;;;0.4;0.4;;;;;;;6.19;92.91016;906.8027;;;;
2023/11/05 05:37:51;;;;;;;0.7;0.6;;;;;;;5.59;95.17285;906.8665;;;;
2023/11/05 05:40:16;;;;;;;0.4;0.4;;;;;;;5.31;96.55469;906.7684;;;;
2023/11/05 05:42:43;;;;;;;0.3;0.3;;;;;;;5.09;97.77734;906.6666;;;;
2023/11/05 05:45:08;;;;;;;0.7;0.6;;;;;;;4.97;99.07129;906.6633;;;;
2023/11/05 05:47:36;;;;;;;1.9;1.6;;;;;;;5.22;98.12402;906.7302;;;;
2023/11/05 05:50:01;;;;;;;1.1;0.8;;;;;;;5.03;99.33203;906.8027;;;;
2023/11/05 05:52:26;;;;;;;1.3;1;;;;;;;5.11;99.28125;906.8688;;;;
2023/11/05 05:54:52;;;;;;;12.7;7.1;;;;;;;5.11;99.14648;906.853;;;;
2023/11/05 05:57:17;;;;;;;1.4;1.3;;;;;;;5.04;98.33984;906.7197;;;;
2023/11/05 05:59:45;;;;;;;1;0.9;;;;;;;4.98;98.24902;906.861;;;;
2023/11/05 06:02:10;;;;;;;1.3;0.8;;;;;;;4.91;99.06641;906.8901;;;;
2023/11/05 06:04:38;;;;;;;2.3;1.4;;;;;;;4.94;98.84863;906.7838;;;;
2023/11/05 06:07:08;;;;;;;2.7;1.6;;;;;;;4.93;99.38574;906.8416;;;;
2023/11/05 06:09:32;;;;;;;3;1.7;;;;;;;4.92;98.75488;906.8329;;;;
2023/11/05 06:11:59;;;;;;;4.4;2;;;;;;;4.66;100;906.8964;;;;
2023/11/05 06:14:26;;;;;;;2.1;1;;;;;;;4.69;100;906.8312;;;;
2023/11/05 06:16:49;;;;;;;1.4;1.2;;;;;;;4.54;100;906.8092;;;;
2023/11/05 06:19:17;;;;;;;1.4;0.7;;;;;;;4.5;100;906.8376;;;;
2023/11/05 06:21:42;;;;;;;0.6;0.6;;;;;;;4.52;100;906.812;;;;
2023/11/05 06:24:07;;;;;;;0.9;0.6;;;;;;;4.55;100;906.7864;;;;
2023/11/05 06:26:32;;;;;;;1.1;1;;;;;;;4.56;100;906.842;;;;
2023/11/05 06:29:04;;;;;;;0.8;0.8;;;;;;;4.61;100;906.8658;;;;
2023/11/05 06:31:33;;;;;;;1;0.9;;;;;;;4.58;100;906.9156;;;;
2023/11/05 06:33:58;;;;;;;1.4;1.1;;;;;;;4.47;100;906.9659;;;;
2023/11/05 06:36:27;;;;;;;2.2;1.5;;;;;;;4.55;100;906.8887;;;;
2023/11/05 06:38:55;;;;;;;3;2.1;;;;;;;4.53;100;906.9922;;;;
2023/11/05 06:41:25;;;;;;;2.5;2.1;;;;;;;4.73;100;907.01;;;;
2023/11/05 06:43:50;;;;;;;3.7;2.6;;;;;;;4.71;100;907.0009;;;;
2023/11/05 06:46:16;;;;;;;3.8;2.8;;;;;;;4.93;100;907.1537;;;;
2023/11/05 06:48:41;;;;;;;2.8;2.5;;;;;;;5.16;99.18164;907.0861;;;;
2023/11/05 06:51:08;;;;;;;3.6;2.7;;;;;;;5.28;99.33496;907.0696;;;;
2023/11/05 06:53:33;;;;;;;3.8;2.7;;;;;;;5.76;96.04688;907.0893;;;;
2023/11/05 06:56:04;;;;;;;5.6;3.9;;;;;;;5.81;95.15332;907.0648;;;;
2023/11/05 06:58:29;;;;;;;10.3;6.6;;;;;;;5.77;95.44824;907.0165;;;;
2023/11/05 07:00:54;;;;;;;5.9;4.1;;;;;;;5.68;95.30469;907.1766;;;;
2023/11/05 07:03:23;;;;;;;2.8;1.8;;;;;;;5.72;94.85156;907.1213;;;;
2023/11/05 07:05:45;;;;;;;2;1.8;;;;;;;6.02;94.25098;907.1426;;;;
2023/11/05 07:08:14;;;;;;;2.2;1.2;;;;;;;6.28;93.28027;907.2074;;;;
2023/11/05 07:10:45;;;;;;;1.7;1.6;;;;;;;6.55;91.65332;907.133;;;;
2023/11/05 07:13:10;;;;;;;1.7;1.6;;;;;;;6.98;90.1377;907.1724;;;;
2023/11/05 07:15:36;;;;;;;1.8;1.4;;;;;;;7.28;88.60059;907.2501;;;;
2023/11/05 07:18:02;;;;;;;1.5;1.4;;;;;;;7.6;86.91211;907.4016;;;;
2023/11/05 07:20:30;;;;;;;1.6;1.5;;;;;;;7.61;86.58301;907.4078;;;;
2023/11/05 07:22:55;;;;;;;1.4;1.1;;;;;;;7.89;84.81445;907.4702;;;;
2023/11/05 07:25:23;;;;;;;0.7;0.7;;;;;;;8.31;81.80664;907.6448;;;;
2023/11/05 07:27:48;;;;;;;0.5;0.5;;;;;;;8.55;81.88574;907.6351;;;;
2023/11/05 07:30:15;;;;;;;0.8;0.6;;;;;;;8.73;79.44141;907.7383;;;;
2023/11/05 07:32:41;;;;;;;0.9;0.6;;;;;;;8.85;79.9541;907.8028;;;;
2023/11/05 07:35:10;;;;;;;2.2;1.5;;;;;;;8.94;80.90332;907.7131;;;;
2023/11/05 07:37:35;;;;;;;1.6;1.4;;;;;;;9;79.44531;907.7494;;;;
2023/11/05 07:40:01;;;;;;;2.2;1.3;;;;;;;8.62;81.45605;907.7712;;;;
2023/11/05 07:42:26;;;;;;;1.8;1.2;;;;;;;8.77;82.50684;907.6982;;;;
2023/11/05 07:44:53;;;;;;;2;1.3;;;;;;;8.75;82.65137;907.7083;;;;
2023/11/05 07:47:19;;;;;;;0.9;0.9;;;;;;;8.78;81.30469;907.8253;;;;
2023/11/05 07:49:48;;;;;;;2.1;1.7;;;;;;;8.89;82.09863;907.7078;;;;
2023/11/05 07:52:12;;;;;;;3.3;1.6;;;;;;;9.28;81.79883;907.6892;;;;
2023/11/05 07:54:40;;;;;;;1.3;1.2;;;;;;;9.51;79.4043;907.6219;;;;
2023/11/05 07:57:05;;;;;;;3.4;2.6;;;;;;;9.69;78.48047;907.598;;;;
2023/11/05 07:59:31;;;;;;;1.4;1.3;;;;;;;9.78;78.98633;907.6287;;;;
2023/11/05 08:01:57;;;;;;;1.3;1.2;;;;;;;9.94;75.69629;907.6145;;;;
2023/11/05 08:04:21;;;;;;;1.4;1.3;;;;;;;10.24;76.18262;907.6547;;;;
2023/11/05 08:06:48;;;;;;;1.8;1.4;;;;;;;10.43;75.06445;907.8424;;;;
2023/11/05 08:09:13;;;;;;;1;0.9;;;;;;;10.51;72.88672;907.874;;;;
2023/11/05 08:11:43;;;;;;;0.9;0.9;;;;;;;10.38;71.12891;907.875;;;;
2023/11/05 08:14:07;;;;;;;0.5;0.5;;;;;;;10.47;70.58398;907.8415;;;;
2023/11/05 08:16:37;;;;;;;1.2;1.1;;;;;;;10.78;70.56738;907.7578;;;;
2023/11/05 08:19:01;;;;;;;1.3;1.1;;;;;;;10.4;70.89258;907.7495;;;;
2023/11/05 08:21:28;;;;;;;1;0.9;;;;;;;10.47;72.6377;907.6778;;;;
2023/11/05 08:23:53;;;;;;;1.5;1.4;;;;;;;10.65;73.62891;907.6986;;;;
2023/11/05 08:26:21;;;;;;;2.6;1.2;;;;;;;10.48;74.06738;907.7776;;;;
2023/11/05 08:28:47;;;;;;;1.2;1.1;;;;;;;10.61;74.30664;907.8928;;;;
2023/11/05 08:31:15;;;;;;;0.8;0.8;;;;;;;10.65;73.72168;907.895;;;;
2023/11/05 08:33:40;;;;;;;1.1;0.7;;;;;;;10.59;73.57227;907.8839;;;;
2023/11/05 08:36:09;;;;;;;0.6;0.6;;;;;;;10.81;73.75977;907.8848;;;;
2023/11/05 08:38:35;;;;;;;1.8;1;;;;;;;10.63;72.38086;907.8873;;;;
2023/11/05 08:41:03;;;;;;;0.7;0.5;;;;;;;10.4;74.04199;907.806;;;;
2023/11/05 08:43:34;;;;;;;0.7;0.6;;;;;;;10.29;75.71387;907.9261;;;;
2023/11/05 08:45:59;;;;;;;1.2;0.8;;;;;;;10.49;74.59473;907.9266;;;;
2023/11/05 08:48:26;;;;;;;0.8;0.7;;;;;;;10.66;74.38379;907.9536;;;;
2023/11/05 08:50:51;;;;;;;0.6;0.6;;;;;;;10.31;71.60742;907.9144;;;;
2023/11/05 08:53:19;;;;;;;0.8;0.6;;;;;;;10.2;73.40332;907.9465;;;;
2023/11/05 08:55:45;;;;;;;0.5;0.5;;;;;;;10.33;72.2627;907.7925;;;;
2023/11/05 08:58:09;;;;;;;0.6;0.6;;;;;;;10.34;69.52539;907.9919;;;;
2023/11/05 09:00:36;;;;;;;0.7;0.6;;;;;;;10.36;72.96387;907.8892;;;;
2023/11/05 09:03:04;;;;;;;0.4;0.4;;;;;;;10.3;70.07813;907.8636;;;;
2023/11/05 09:05:35;;;;;;;0.2;0.2;;;;;;;10.3;70.61523;907.8184;;;;
2023/11/05 09:08:04;;;;;;;0.4;0.4;;;;;;;10.5;68.60254;907.9207;;;;
2023/11/05 09:10:30;;;;;;;0.3;0.3;;;;;;;10.54;66.94238;907.9882;;;;
2023/11/05 09:12:56;;;;;;;0.2;0.2;;;;;;;10.55;66.49902;907.8758;;;;
2023/11/05 09:15:20;;;;;;;0.4;0.4;;;;;;;10.7;68.74902;907.9409;;;;
2023/11/05 09:17:50;;;;;;;0.3;0.3;;;;;;;10.92;65.53809;908.0778;;;;
2023/11/05 09:20:20;;;;;;;0.3;0.3;;;;;;;11.02;65.65625;908.18;;;;
2023/11/05 09:22:49;;;;;;;0.3;0.3;;;;;;;11.34;65.73828;908.2555;;;;
2023/11/05 09:25:15;;;;;;;0.7;0.4;;;;;;;11.47;64.78613;908.3569;;;;
2023/11/05 09:27:43;;;;;;;0.7;0.5;;;;;;;11.92;62.16211;908.2163;;;;
2023/11/05 09:30:11;;;;;;;1.1;0.7;;;;;;;12.17;64.57129;908.3121;;;;
2023/11/05 09:32:33;;;;;;;0.3;0.3;;;;;;;12.33;64.35449;908.341;;;;
2023/11/05 09:35:04;;;;;;;0.5;0.5;;;;;;;12.58;60.19043;908.4769;;;;
2023/11/05 09:37:34;;;;;;;0.7;0.6;;;;;;;12.68;60.38867;908.4939;;;;
2023/11/05 09:40:00;;;;;;;0.4;0.4;;;;;;;12.6;60.05566;908.6301;;;;
2023/11/05 09:42:27;;;;;;;1;0.7;;;;;;;12.7;59.33594;908.5481;;;;
2023/11/05 09:44:52;;;;;;;0.8;0.5;;;;;;;12.83;61.15527;908.4691;;;;
2023/11/05 09:47:19;;;;;;;0.3;0.3;;;;;;;12.9;59.13379;908.5206;;;;
2023/11/05 09:49:45;;;;;;;0.3;0.3;;;;;;;12.94;57.24414;908.617;;;;
2023/11/05 09:52:11;;;;;;;0.5;0.3;;;;;;;12.83;58.5498;908.6144;;;;
2023/11/05 09:54:40;;;;;;;0.4;0.3;;;;;;;12.93;57.3916;908.7459;;;;
2023/11/05 09:57:03;;;;;;;0.4;0.3;;;;;;;13.07;58.37695;908.845;;;;
2023/11/05 09:59:29;;;;;;;0.3;0.3;;;;;;;13.21;57.38379;908.8923;;;;
2023/11/05 10:01:54;;;;;;;0.3;0.3;;;;;;;13.48;57.9834;909.0186;;;;
2023/11/05 10:04:26;;;;;;;0.4;0.4;;;;;;;13.63;57.4502;909.2403;;;;
2023/11/05 10:06:52;;;;;;;0.4;0.4;;;;;;;13.95;58.22852;909.3872;;;;
2023/11/05 10:09:16;;;;;;;0.4;0.4;;;;;;;14.02;54.07227;909.4521;;;;
2023/11/05 10:11:46;;;;;;;1.1;0.5;;;;;;;14.09;54.77148;909.4124;;;;
2023/11/05 10:14:11;;;;;;;1.1;0.4;;;;;;;14.34;55.31055;909.4183;;;;
2023/11/05 10:16:38;;;;;;;0.6;0.5;;;;;;;14.54;52.21289;909.5206;;;;
2023/11/05 10:19:04;;;;;;;0.6;0.3;;;;;;;14.52;54.24902;909.5915;;;;
2023/11/05 10:21:33;;;;;;;0.4;0.4;;;;;;;14.51;52.68066;909.6208;;;;
2023/11/05 10:24:02;;;;;;;0.4;0.4;;;;;;;14.39;53.46094;909.6919;;;;
2023/11/05 10:26:28;;;;;;;0.7;0.4;;;;;;;13.78;55.1582;909.9598;;;;
2023/11/05 10:28:57;;;;;;;0.4;0.4;;;;;;;13.76;55.04102;909.9439;;;;
2023/11/05 10:31:22;;;;;;;0.3;0.3;;;;;;;13.69;55.34277;909.9576;;;;
2023/11/05 10:33:47;;;;;;;17.2;7.2;;;;;;;13.72;54.95508;910.1789;;;;
2023/11/05 10:36:15;;;;;;;5.8;2.1;;;;;;;13.84;54.90234;909.9252;;;;
2023/11/05 10:38:44;;;;;;;2.1;0.9;;;;;;;14.3;55.30469;910.0549;;;;
2023/11/05 10:41:10;;;;;;;1.3;1;;;;;;;14.48;56.24902;910.3187;;;;
2023/11/05 10:43:38;;;;;;;0.6;0.4;;;;;;;14.74;52.43262;910.0405;;;;
2023/11/05 10:46:03;;;;;;;0.3;0.3;;;;;;;14.68;50.15527;910.0117;;;;
2023/11/05 10:48:31;;;;;;;0.2;0.2;;;;;;;14.67;52.66602;910.0989;;;;
2023/11/05 10:50:55;;;;;;;0.8;0.2;;;;;;;14.76;53.37988;910.0486;;;;
2023/11/05 10:53:21;;;;;;;0.1;0.1;;;;;;;14.96;49.56348;910.0136;;;;
2023/11/05 10:55:45;;;;;;;1.8;0.8;;;;;;;15.13;51.6709;910.1082;;;;
2023/11/05 10:58:10;;;;;;;0.3;0.2;;;;;;;15.41;47.65137;910.0851;;;;
2023/11/05 11:00:35;;;;;;;0.2;0.2;;;;;;;15.17;50.11816;910.0513;;;;
2023/11/05 11:03:01;;;;;;;0.3;0.3;;;;;;;15.48;48.6875;910.1547;;;;
2023/11/05 11:08:01;;;;;;;0.3;0.3;;;;;;;16.15;47.02637;910.1605;;;;
2023/11/05 11:10:26;;;;;;;0.3;0.3;;;;;;;16.1;46.83691;910.3123;;;;
2023/11/05 11:12:55;;;;;;;0.3;0.3;;;;;;;15.8;46.22559;910.1691;;;;
2023/11/05 11:15:20;;;;;;;0.4;0.4;;;;;;;15.71;48.71191;910.1707;;;;
2023/11/05 11:17:45;;;;;;;0.3;0.3;;;;;;;15.75;46.2793;910.2794;;;;
2023/11/05 11:20:11;;;;;;;0.6;0.3;;;;;;;16.36;49.57129;910.2056;;;;
2023/11/05 11:22:35;;;;;;;0.4;0.4;;;;;;;16.96;47.11426;910.2927;;;;
2023/11/05 11:25:03;;;;;;;0.5;0.3;;;;;;;16.9;43.68945;910.2889;;;;
2023/11/05 11:27:27;;;;;;;0.5;0.4;;;;;;;16.84;44.34375;910.0997;;;;
2023/11/05 11:29:56;;;;;;;0.5;0.5;;;;;;;16.5;44.7832;910.0894;;;;
2023/11/05 11:32:19;;;;;;;0.2;0.2;;;;;;;16.78;45.08984;910.1097;;;;
2023/11/05 11:34:49;;;;;;;0.4;0.4;;;;;;;17.06;44.09961;909.8778;;;;
2023/11/05 11:37:14;;;;;;;1.2;0.4;;;;;;;17.9;41.93066;909.9024;;;;
2023/11/05 11:39:42;;;;;;;0.1;0.1;;;;;;;19.64;39.01855;909.9045;;;;
2023/11/05 11:42:08;;;;;;;0.2;0.1;;;;;;;21.28;36.0752;909.9852;;;;
2023/11/05 11:44:35;;;;;;;0.3;0.2;;;;;;;20.8;36.24609;910.1728;;;;
2023/11/05 11:47:00;;;;;;;0.1;0.1;;;;;;;20.99;34.08594;910.1361;;;;
2023/11/05 11:49:25;;;;;;;0.3;0.1;;;;;;;22.49;34.16699;910.0722;;;;
2023/11/05 11:51:55;;;;;;;0.1;0.1;;;;;;;23.33;32.0918;910.1286;;;;
2023/11/05 11:54:24;;;;;;;0.1;0.1;;;;;;;22.82;32.99512;910.1231;;;;
2023/11/05 11:56:50;;;;;;;0.2;0.1;;;;;;;22.61;30.62012;910.2575;;;;
2023/11/05 11:59:14;;;;;;;0.1;0.1;;;;;;;21.95;32.78906;910.4099;;;;
2023/11/05 12:01:45;;;;;;;0.1;0.1;;;;;;;20.52;34.12109;910.4336;;;;
2023/11/05 12:04:15;;;;;;;1.1;0.2;;;;;;;23.65;31.20996;910.3811;;;;
2023/11/05 12:06:43;;;;;;;0.6;0.2;;;;;;;27.7;25.58105;910.4631;;;;
2023/11/05 12:09:05;;;;;;;0.1;0.1;;;;;;;29.68;23.09473;910.3942;;;;
2023/11/05 12:11:34;;;;;;;0.3;0.1;;;;;;;32.6;20.96387;910.4723;;;;
2023/11/05 12:13:59;;;;;;;0.2;0.2;;;;;;;28.13;23.98926;910.4403;;;;
2023/11/05 12:16:25;;;;;;;0.7;0.3;;;;;;;28.92;25.03223;910.6024;;;;
2023/11/05 12:18:53;;;;;;;0.2;0.2;;;;;;;30.12;22.26953;910.6578;;;;
2023/11/05 12:21:18;;;;;;;0.6;0.2;;;;;;;28.71;23.69922;910.7302;;;;
2023/11/05 12:23:49;;;;;;;0.1;0.1;;;;;;;29.03;23.38281;910.7445;;;;
2023/11/05 12:26:20;;;;;;;0.2;0.2;;;;;;;27.44;24.43945;910.8138;;;;
2023/11/05 12:28:50;;;;;;;0.1;0.1;;;;;;;27.75;23.7793;910.8188;;;;
2023/11/05 12:31:15;;;;;;;0.1;0.1;;;;;;;27.06;25.05859;910.8564;;;;
2023/11/05 12:33:45;;;;;;;0.6;0.6;;;;;;;28.72;23.24805;911.0042;;;;
2023/11/05 12:36:09;;;;;;;1;0.1;;;;;;;28.37;21.80273;910.9761;;;;
2023/11/05 12:38:37;;;;;;;0.1;0.1;;;;;;;28.06;22.71484;910.9986;;;;
2023/11/05 12:41:02;;;;;;;0.3;0.1;;;;;;;27.53;24.19531;911.081;;;;
2023/11/05 12:43:31;;;;;;;0.1;0.1;;;;;;;25.48;25.08887;911.0094;;;;
2023/11/05 12:46:02;;;;;;;0.2;0.2;;;;;;;24.83;26.79785;910.9932;;;;
2023/11/05 12:48:33;;;;;;;0.7;0.5;;;;;;;23.88;26.83496;910.9897;;;;
2023/11/05 12:50:58;;;;;;;0.3;0.3;;;;;;;22.14;29.35645;910.9515;;;;
2023/11/05 12:53:27;;;;;;;0.6;0.5;;;;;;;21.95;30.375;911.0348;;;;
2023/11/05 12:55:53;;;;;;;0.7;0.3;;;;;;;21.41;31.14551;911.0881;;;;
2023/11/05 12:58:17;;;;;;;1.7;0.3;;;;;;;20.43;32.67676;911.2335;;;;
2023/11/05 13:00:43;;;;;;;0.6;0.6;;;;;;;19.92;33.09473;911.2374;;;;
2023/11/05 13:03:09;;;;;;;0.5;0.2;;;;;;;19.03;35.6123;911.3619;;;;
2023/11/05 13:05:34;;;;;;;0.1;0.1;;;;;;;20.1;33.67969;911.4127;;;;
2023/11/05 13:08:02;;;;;;;1;0.2;;;;;;;21.8;32.0166;911.3764;;;;
2023/11/05 13:10:26;;;;;;;0.2;0.2;;;;;;;19.23;35.51172;911.4439;;;;
2023/11/05 13:12:54;;;;;;;0.1;0.1;;;;;;;19.94;35.73242;911.5129;;;;
2023/11/05 13:15:20;;;;;;;0;0;;;;;;;20.84;32.18164;911.4247;;;;
2023/11/05 13:17:44;;;;;;;0;0;;;;;;;23.45;29.3252;911.5485;;;;
2023/11/05 13:20:19;;;;;;;0.1;0.1;;;;;;;24.92;28.17188;911.537;;;;
2023/11/05 13:22:46;;;;;;;0.1;0.1;;;;;;;24.06;27.66992;911.5097;;;;
2023/11/05 13:25:11;;;;;;;0.1;0.1;;;;;;;22.06;29.4209;911.5035;;;;
2023/11/05 13:27:41;;;;;;;0.1;0.1;;;;;;;22.67;30.60059;911.6545;;;;
2023/11/05 13:30:09;;;;;;;0.1;0.1;;;;;;;22.63;29.13086;911.5933;;;;
2023/11/05 13:32:34;;;;;;;0.1;0.1;;;;;;;23.49;27.98828;911.4975;;;;
2023/11/05 13:35:02;;;;;;;0.2;0.2;;;;;;;22.87;29.12305;911.5776;;;;
2023/11/05 13:37:27;;;;;;;0.3;0.3;;;;;;;22.79;30.78516;911.6647;;;;
2023/11/05 13:39:52;;;;;;;0.6;0.3;;;;;;;23.3;29.00977;911.7081;;;;
2023/11/05 13:42:20;;;;;;;0.2;0.2;;;;;;;23.46;29.44336;911.7815;;;;
2023/11/05 13:44:52;;;;;;;0.2;0.1;;;;;;;22.62;29.61133;911.7436;;;;
2023/11/05 13:47:22;;;;;;;1.2;0.3;;;;;;;22.07;29.66895;911.7497;;;;
2023/11/05 13:49:47;;;;;;;0.6;0.5;;;;;;;22.08;30.72363;911.8666;;;;
2023/11/05 13:52:15;;;;;;;0.2;0.2;;;;;;;23.59;28.85254;911.9203;;;;
2023/11/05 13:54:40;;;;;;;0.2;0.1;;;;;;;22.77;27.41504;911.9791;;;;
2023/11/05 13:57:06;;;;;;;0.2;0.1;;;;;;;21.31;29.43066;911.983;;;;
2023/11/05 13:59:31;;;;;;;0.3;0.3;;;;;;;20.75;30.33984;912.113;;;;
2023/11/05 14:01:59;;;;;;;0.6;0.3;;;;;;;22.65;29.68359;912.1644;;;;
2023/11/05 14:04:24;;;;;;;1.3;0.2;;;;;;;23.46;27.49219;912.1255;;;;
2023/11/05 14:06:51;;;;;;;0.2;0.2;;;;;;;23.94;27.83984;912.1387;;;;
2023/11/05 14:09:17;;;;;;;0.4;0.2;;;;;;;24.48;26.15234;912.3008;;;;
2023/11/05 14:11:44;;;;;;;0.3;0.2;;;;;;;23.17;28.10938;912.3335;;;;
2023/11/05 14:14:14;;;;;;;0;0;;;;;;;22.48;28.13574;912.3615;;;;
2023/11/05 14:16:38;;;;;;;0.1;0.1;;;;;;;22.46;30.51563;912.3303;;;;
2023/11/05 14:19:06;;;;;;;0.4;0.2;;;;;;;20.3;31.12598;912.4447;;;;
2023/11/05 14:21:33;;;;;;;0.1;0.1;;;;;;;20.73;32.54688;912.468;;;;
2023/11/05 14:23:57;;;;;;;0.2;0.2;;;;;;;20.18;31.05957;912.4211;;;;
2023/11/05 14:26:23;;;;;;;0.5;0.2;;;;;;;19.33;32.72363;912.3679;;;;
2023/11/05 14:28:48;;;;;;;0.1;0.1;;;;;;;17.87;34.91504;912.3882;;;;
2023/11/05 14:31:20;;;;;;;0.3;0.1;;;;;;;17.46;36.55273;912.4487;;;;
2023/11/05 14:33:44;;;;;;;0.1;0.1;;;;;;;17.1;36.37207;912.45;;;;